createdAt,value
2022-09-16T00:04:03.517Z,67.62
2022-09-16T00:06:41.097Z,67.58
2022-09-16T00:09:17.066Z,67.85
2022-09-16T00:11:55.125Z,67.02
2022-09-16T00:14:22.777Z,67.38
2022-09-16T00:19:05.810Z,67.75
2022-09-16T00:33:17.749Z,69.18
2022-09-16T00:36:01.604Z,68.93
2022-09-16T00:38:40.118Z,68.27
2022-09-16T00:41:18.049Z,68.30
2022-09-16T00:44:02.946Z,68.03
2022-09-16T00:47:01.556Z,67.98
2022-09-16T00:49:37.935Z,66.79
2022-09-16T00:52:13.989Z,66.78
2022-09-16T00:54:42.519Z,66.09
2022-09-16T00:59:04.427Z,67.43
2022-09-16T01:01:43.155Z,66.19
2022-09-16T01:04:27.467Z,65.11
2022-09-16T01:07:04.050Z,66.29
2022-09-16T01:09:32.001Z,66.43
2022-09-16T01:12:08.743Z,66.99
2022-09-16T01:15:03.166Z,66.21
2022-09-16T01:18:17.142Z,66.69
2022-09-16T01:21:17.397Z,66.85
2022-09-16T01:24:23.485Z,64.95
2022-09-16T01:27:24.578Z,65.30
2022-09-16T01:30:15.748Z,65.21
2022-09-16T01:33:27.974Z,63.93
2022-09-16T01:36:23.358Z,64.38
2022-09-16T01:39:18.281Z,65.46
2022-09-16T01:42:20.989Z,64.07
2022-09-16T01:45:17.579Z,64.04
2022-09-16T01:48:33.686Z,64.07
2022-09-16T01:51:30.987Z,64.20
2022-09-16T01:54:12.450Z,64.41
2022-09-16T01:56:43.180Z,65.48
2022-09-16T01:59:37.434Z,64.78
2022-09-16T02:02:17.952Z,64.85
2022-09-16T02:05:20.143Z,63.71
2022-09-16T02:08:21.240Z,64.79
2022-09-16T02:11:21.638Z,64.50
2022-09-16T02:14:22.215Z,65.01
2022-09-16T02:16:49.755Z,64.94
2022-09-16T02:19:41.051Z,65.29
2022-09-16T02:22:36.989Z,64.03
2022-09-16T02:25:14.915Z,63.93
2022-09-16T02:28:16.314Z,65.91
2022-09-16T02:31:16.797Z,66.17
2022-09-16T02:34:20.294Z,65.84
2022-09-16T02:37:29.136Z,65.86
2022-09-16T02:40:11.528Z,64.74
2022-09-16T02:42:47.808Z,65.02
2022-09-16T02:45:28.125Z,64.85
2022-09-16T02:48:13.553Z,63.85
2022-09-16T02:51:23.920Z,65.14
2022-09-16T02:54:30.249Z,65.82
2022-09-16T02:57:07.120Z,64.82
2022-09-16T02:59:44.358Z,65.20
2022-09-16T03:02:12.723Z,66.45
2022-09-16T03:18:10.845Z,68.27
2022-09-16T03:21:25.076Z,67.87
2022-09-16T03:24:28.054Z,67.39
2022-09-16T03:27:09.317Z,67.65
2022-09-16T03:30:14.106Z,67.50
2022-09-16T03:33:24.568Z,66.12
2022-09-16T03:36:26.457Z,67.16
2022-09-16T03:39:13.081Z,65.91
2022-09-16T03:41:51.210Z,66.14
2022-09-16T03:44:35.936Z,66.62
2022-09-16T03:47:12.643Z,65.92
2022-09-16T03:49:40.247Z,67.12
2022-09-16T03:52:19.040Z,67.55
2022-09-16T03:57:45.350Z,67.71
2022-09-16T04:00:21.680Z,66.62
2022-09-16T04:03:22.143Z,66.42
2022-09-16T04:06:21.977Z,67.62
2022-09-16T04:09:22.056Z,66.00
2022-09-16T04:11:49.745Z,66.12
2022-09-16T04:14:26.456Z,68.00
2022-09-16T04:17:26.007Z,67.07
2022-09-16T04:20:26.002Z,67.08
2022-09-16T04:22:53.552Z,66.49
2022-09-16T04:25:30.567Z,67.61
2022-09-16T04:28:06.996Z,67.71
2022-09-16T04:30:34.666Z,67.24
2022-09-16T04:33:11.309Z,66.53
2022-09-16T04:35:47.851Z,67.07
2022-09-16T04:38:24.268Z,68.33
2022-09-16T04:41:26.252Z,67.81
2022-09-16T04:44:27.150Z,66.36
2022-09-16T04:47:03.327Z,67.22
2022-09-16T04:49:39.229Z,66.53
2022-09-16T04:52:06.851Z,66.67
2022-09-16T04:54:43.358Z,67.65
2022-09-16T04:57:19.321Z,66.47
2022-09-16T04:59:55.386Z,66.17
2022-09-16T05:02:31.368Z,66.24
2022-09-16T05:05:08.030Z,65.89
2022-09-16T05:07:44.308Z,65.59
2022-09-16T05:10:20.250Z,65.08
2022-09-16T05:12:56.478Z,65.29
2022-09-16T05:15:24.298Z,65.96
2022-09-16T05:18:23.845Z,65.28
2022-09-16T05:20:57.264Z,64.51
2022-09-16T05:23:49.000Z,64.59
2022-09-16T05:26:27.616Z,64.42
2022-09-16T05:29:28.192Z,63.84
2022-09-16T05:32:27.993Z,63.78
2022-09-16T05:35:28.620Z,63.63
2022-09-16T05:38:29.022Z,63.36
2022-09-16T05:41:28.837Z,62.70
2022-09-16T05:46:50.495Z,62.43
2022-09-16T05:49:26.630Z,62.43
2022-09-16T05:52:04.317Z,62.04
2022-09-16T05:54:40.317Z,61.68
2022-09-16T05:57:16.385Z,61.18
2022-09-16T05:59:52.314Z,60.97
2022-09-16T06:02:28.494Z,61.26
2022-09-16T06:05:28.095Z,61.28
2022-09-16T06:08:28.848Z,61.09
2022-09-16T06:11:28.823Z,60.45
2022-09-16T06:14:30.370Z,60.78
2022-09-16T06:17:30.199Z,60.33
2022-09-16T06:20:29.959Z,58.58
2022-09-16T06:23:30.059Z,60.48
2022-09-16T06:26:30.649Z,63.31
2022-09-16T06:29:31.768Z,63.30
2022-09-16T06:32:32.377Z,62.50
2022-09-16T06:35:33.244Z,61.51
2022-09-16T06:38:01.642Z,60.77
2022-09-16T06:40:53.322Z,60.37
2022-09-16T06:43:29.499Z,59.48
2022-09-16T06:46:29.170Z,59.96
2022-09-16T06:49:29.203Z,59.25
2022-09-16T06:52:29.054Z,61.77
2022-09-16T06:55:28.995Z,62.69
2022-09-16T06:58:32.263Z,60.38
2022-09-16T07:01:20.919Z,59.10
2022-09-16T07:03:58.659Z,61.00
2022-09-16T07:07:07.462Z,60.06
2022-09-16T07:09:32.918Z,61.27
2022-09-16T07:12:33.124Z,62.53
2022-09-16T07:15:32.955Z,60.74
2022-09-16T07:18:34.249Z,59.98
2022-09-16T07:21:34.187Z,59.52
2022-09-16T07:24:03.315Z,59.21
2022-09-16T07:26:53.493Z,59.65
2022-09-16T07:29:30.472Z,59.20
2022-09-16T07:32:30.084Z,59.16
2022-09-16T07:35:30.101Z,58.76
2022-09-16T07:38:30.253Z,60.22
2022-09-16T07:41:31.184Z,59.77
2022-09-16T07:44:31.264Z,58.81
2022-09-16T07:46:58.891Z,57.37
2022-09-16T07:51:16.096Z,56.78
2022-09-16T07:54:16.851Z,55.13
2022-09-16T07:56:53.594Z,56.86
2022-09-16T07:59:29.537Z,56.28
2022-09-16T08:01:57.246Z,55.92
2022-09-16T08:06:20.512Z,53.76
2022-09-16T08:09:05.933Z,54.15
2022-09-16T08:12:04.677Z,53.59
2022-09-16T08:14:56.057Z,51.78
2022-09-16T08:17:33.572Z,52.06
2022-09-16T08:20:04.332Z,51.39
2022-09-16T08:22:32.183Z,47.46
2022-09-16T08:25:00.100Z,44.28
2022-09-16T08:27:28.918Z,42.56
2022-09-16T08:29:56.548Z,40.22
2022-09-16T08:32:24.261Z,39.77
2022-09-16T08:35:01.553Z,38.94
2022-09-16T08:37:38.381Z,37.84
2022-09-16T08:40:07.121Z,35.53
2022-09-16T08:43:06.093Z,34.29
2022-09-16T08:45:43.046Z,35.76
2022-09-16T08:48:48.371Z,35.37
2022-09-16T08:51:20.411Z,35.98
2022-09-16T08:54:05.183Z,34.15
2022-09-16T08:56:45.088Z,35.20
2022-09-16T08:59:16.340Z,32.39
2022-09-16T09:02:24.841Z,35.93
2022-09-16T09:04:53.059Z,36.58
2022-09-16T09:07:52.880Z,34.87
2022-09-16T09:11:00.056Z,38.22
2022-09-16T09:14:04.267Z,35.33
2022-09-16T09:16:49.333Z,34.75
2022-09-16T09:19:49.301Z,34.09
2022-09-16T09:23:01.771Z,34.13
2022-09-16T09:25:57.125Z,35.01
2022-09-16T09:29:27.131Z,36.16
2022-09-16T09:32:48.353Z,37.96
2022-09-16T09:35:38.709Z,33.70
2022-09-16T09:38:44.872Z,34.64
2022-09-16T09:41:41.739Z,35.26
2022-09-16T09:44:36.216Z,34.43
2022-09-16T09:47:37.401Z,33.20
2022-09-16T09:50:25.678Z,34.10
2022-09-16T09:55:59.337Z,33.43
2022-09-16T09:58:39.897Z,33.68
2022-09-16T10:01:40.331Z,31.41
2022-09-16T10:04:26.777Z,31.94
2022-09-16T10:06:56.933Z,32.03
2022-09-16T10:09:34.628Z,32.54
2022-09-16T10:12:10.503Z,33.71
2022-09-16T10:14:52.220Z,34.02
2022-09-16T10:17:19.879Z,34.62
2022-09-16T10:20:29.941Z,34.97
2022-09-16T10:23:01.626Z,34.22
2022-09-16T10:25:30.904Z,32.39
2022-09-16T10:28:02.021Z,32.62
2022-09-16T10:30:43.532Z,30.97
2022-09-16T10:33:43.713Z,30.85
2022-09-16T10:36:19.477Z,31.73
2022-09-16T10:39:03.935Z,29.75
2022-09-16T10:41:41.893Z,30.48
2022-09-16T10:44:22.037Z,27.95
2022-09-16T10:46:51.900Z,27.40
2022-09-16T10:49:38.776Z,25.84
2022-09-16T10:52:43.667Z,26.54
2022-09-16T10:55:43.861Z,28.06
2022-09-16T10:58:44.019Z,27.22
2022-09-16T11:01:44.062Z,27.76
2022-09-16T11:04:51.542Z,28.54
2022-09-16T11:07:38.505Z,27.33
2022-09-16T11:10:32.138Z,28.34
2022-09-16T11:13:40.098Z,28.05
2022-09-16T11:16:39.857Z,27.67
2022-09-16T11:19:49.153Z,28.46
2022-09-16T11:22:34.907Z,30.44
2022-09-16T11:28:37.156Z,34.51
2022-09-16T11:31:38.306Z,36.48
2022-09-16T11:34:48.477Z,36.15
2022-09-16T11:37:31.946Z,36.12
2022-09-16T11:40:29.242Z,36.46
2022-09-16T11:43:35.281Z,36.75
2022-09-16T11:46:43.823Z,37.39
2022-09-16T11:49:48.842Z,38.06
2022-09-16T11:52:47.468Z,39.08
2022-09-16T11:55:56.429Z,39.35
2022-09-16T11:58:32.333Z,40.00
2022-09-16T12:01:07.062Z,40.16
2022-09-16T12:05:30.141Z,40.21
2022-09-16T12:08:06.419Z,39.23
2022-09-16T12:10:50.178Z,39.35
2022-09-16T12:13:37.705Z,40.61
2022-09-16T12:16:09.528Z,41.68
2022-09-16T12:20:52.539Z,43.42
2022-09-16T12:23:32.337Z,42.74
2022-09-16T12:29:32.907Z,42.81
2022-09-16T12:32:14.529Z,43.84
2022-09-16T12:34:55.680Z,43.15
2022-09-16T12:37:37.070Z,43.20
2022-09-16T12:40:48.458Z,42.17
2022-09-16T12:44:17.102Z,42.57
2022-09-16T12:47:32.293Z,42.23
2022-09-16T12:50:38.971Z,41.86
2022-09-16T12:53:58.116Z,41.22
2022-09-16T12:57:05.540Z,41.08
2022-09-16T12:59:53.933Z,41.04
2022-09-16T13:02:37.037Z,41.10
2022-09-16T13:05:34.465Z,41.70
2022-09-16T13:08:46.713Z,41.76
2022-09-16T13:14:58.702Z,40.89
2022-09-16T13:17:39.759Z,40.82
2022-09-16T13:20:33.740Z,40.49
2022-09-16T13:23:06.817Z,40.56
2022-09-16T13:28:48.921Z,40.88
2022-09-16T13:31:49.467Z,40.74
2022-09-16T13:35:00.250Z,40.75
2022-09-16T13:37:36.350Z,41.33
2022-09-16T13:40:36.909Z,41.74
2022-09-16T13:43:14.406Z,41.64
2022-09-16T13:46:06.089Z,41.37
2022-09-16T13:48:46.370Z,41.57
2022-09-16T13:51:47.768Z,41.50
2022-09-16T13:55:09.317Z,41.68
2022-09-16T13:57:49.260Z,41.97
2022-09-16T14:00:52.729Z,42.02
2022-09-16T14:03:58.628Z,41.94
2022-09-16T14:06:56.828Z,42.16
2022-09-16T14:09:54.139Z,42.13
2022-09-16T14:12:39.185Z,42.20
2022-09-16T14:15:16.273Z,42.37
2022-09-16T14:17:57.324Z,42.57
2022-09-16T14:20:34.089Z,42.49
2022-09-16T14:23:17.823Z,42.51
2022-09-16T14:25:55.505Z,42.64
2022-09-16T14:28:33.051Z,43.14
2022-09-16T14:31:19.940Z,42.70
2022-09-16T14:34:00.637Z,43.03
2022-09-16T14:36:39.402Z,43.08
2022-09-16T14:39:17.977Z,43.10
2022-09-16T14:42:03.227Z,42.31
2022-09-16T14:44:42.817Z,41.77
2022-09-16T14:47:57.411Z,41.93
2022-09-16T14:50:42.799Z,42.12
2022-09-16T14:53:38.360Z,42.92
2022-09-16T14:56:19.178Z,43.28
2022-09-16T14:58:47.253Z,43.45
2022-09-16T15:03:53.869Z,44.29
2022-09-16T15:06:54.732Z,44.37
2022-09-16T15:10:00.211Z,44.77
2022-09-16T15:12:49.180Z,45.15
2022-09-16T15:15:46.907Z,45.79
2022-09-16T15:18:45.101Z,45.79
2022-09-16T15:21:24.560Z,46.49
2022-09-16T15:24:16.258Z,47.86
2022-09-16T15:26:53.854Z,48.07
2022-09-16T15:29:56.754Z,47.78
2022-09-16T15:32:56.865Z,48.08
2022-09-16T15:35:25.588Z,47.90
2022-09-16T15:38:21.818Z,48.37
2022-09-16T15:41:07.013Z,47.99
2022-09-16T15:43:44.772Z,48.26
2022-09-16T15:46:21.992Z,49.34
2022-09-16T15:51:52.578Z,51.58
2022-09-16T15:54:56.219Z,51.45
2022-09-16T15:57:40.892Z,51.54
2022-09-16T16:00:13.287Z,51.79
2022-09-16T16:02:53.975Z,51.57
2022-09-16T16:05:53.408Z,52.46
2022-09-16T16:08:51.248Z,51.28
2022-09-16T16:11:26.141Z,52.52
2022-09-16T16:14:02.088Z,53.26
2022-09-16T16:16:55.250Z,52.73
2022-09-16T16:19:25.888Z,51.92
2022-09-16T16:22:01.760Z,54.67
2022-09-16T16:24:41.411Z,53.34
2022-09-16T16:27:11.059Z,54.35
2022-09-16T16:29:46.038Z,54.04
2022-09-16T16:32:20.997Z,55.39
2022-09-16T16:34:57.526Z,53.62
2022-09-16T16:37:55.814Z,54.80
2022-09-16T16:40:23.582Z,54.71
2022-09-16T16:42:50.678Z,56.49
2022-09-16T16:45:25.096Z,57.27
2022-09-16T16:47:52.314Z,56.81
2022-09-16T16:52:50.870Z,57.87
2022-09-16T16:55:25.605Z,57.21
2022-09-16T16:58:00.901Z,56.75
2022-09-16T17:00:27.265Z,57.33
2022-09-16T17:02:54.165Z,58.45
2022-09-16T17:07:41.098Z,58.10
2022-09-16T17:10:18.238Z,59.43
2022-09-16T17:12:54.144Z,58.33
2022-09-16T17:15:30.162Z,58.85
2022-09-16T17:19:10.624Z,60.20
2022-09-16T17:21:49.079Z,59.04
2022-09-16T17:24:24.165Z,59.29
2022-09-16T17:26:50.834Z,57.73
2022-09-16T17:29:17.732Z,59.23
2022-09-16T17:31:56.266Z,59.17
2022-09-16T17:34:43.456Z,61.28
2022-09-16T17:37:19.194Z,56.93
2022-09-16T17:39:54.352Z,57.67
2022-09-16T17:42:21.841Z,60.97
2022-09-16T17:44:57.493Z,59.82
2022-09-16T17:47:48.710Z,57.86
2022-09-16T17:50:20.958Z,56.84
2022-09-16T17:52:58.117Z,60.04
2022-09-16T17:56:10.873Z,59.95
2022-09-16T17:58:45.472Z,60.19
2022-09-16T18:01:16.415Z,62.57
2022-09-16T18:03:52.643Z,61.81
2022-09-16T18:06:50.958Z,63.79
2022-09-16T18:09:17.843Z,61.56
2022-09-16T18:11:53.216Z,59.94
2022-09-16T18:14:28.177Z,57.34
2022-09-16T18:17:03.390Z,58.64
2022-09-16T18:20:06.792Z,58.93
2022-09-16T18:22:33.896Z,62.09
2022-09-16T18:25:25.207Z,64.24
2022-09-16T18:28:00.201Z,60.85
2022-09-16T18:30:27.111Z,57.88
2022-09-16T18:33:02.149Z,58.57
2022-09-16T18:36:02.247Z,59.29
2022-09-16T18:39:02.021Z,58.15
2022-09-16T18:41:30.938Z,58.77
2022-09-16T18:44:18.942Z,63.35
2022-09-16T18:46:54.402Z,65.78
2022-09-16T18:49:23.325Z,64.97
2022-09-16T18:51:58.580Z,63.63
2022-09-16T18:54:33.209Z,61.27
2022-09-16T18:57:08.596Z,59.27
2022-09-16T18:59:45.358Z,60.77
2022-09-16T19:02:12.826Z,59.98
2022-09-16T19:04:48.224Z,59.64
2022-09-16T19:07:27.902Z,61.78
2022-09-16T19:10:03.809Z,63.11
2022-09-16T19:15:19.606Z,59.69
2022-09-16T19:17:54.867Z,61.10
2022-09-16T19:20:30.359Z,63.07
2022-09-16T19:23:06.117Z,63.50
2022-09-16T19:25:32.786Z,58.59
2022-09-16T19:28:07.342Z,58.56
2022-09-16T19:31:07.613Z,59.99
2022-09-16T19:34:06.116Z,62.21
2022-09-16T19:36:33.514Z,60.41
2022-09-16T19:39:08.948Z,58.35
2022-09-16T19:42:08.077Z,59.78
2022-09-16T19:44:34.494Z,60.15
2022-09-16T19:47:01.731Z,60.79
2022-09-16T19:49:37.129Z,64.25
2022-09-16T19:52:27.529Z,63.15
2022-09-16T19:54:54.209Z,63.09
2022-09-16T19:57:21.594Z,60.03
2022-09-16T19:59:57.214Z,59.87
2022-09-16T20:02:32.387Z,60.31
2022-09-16T20:05:09.152Z,61.78
2022-09-16T20:07:35.755Z,60.77
2022-09-16T20:10:02.198Z,61.14
2022-09-16T20:12:37.080Z,64.17
2022-09-16T20:15:12.073Z,62.95
2022-09-16T20:17:49.220Z,62.16
2022-09-16T20:20:15.709Z,63.39
2022-09-16T20:22:51.825Z,62.82
2022-09-16T20:25:27.151Z,62.89
2022-09-16T20:28:02.257Z,62.08
2022-09-16T20:30:37.320Z,58.37
2022-09-16T20:33:04.038Z,59.37
2022-09-16T20:35:32.364Z,61.46
2022-09-16T20:38:07.232Z,63.78
2022-09-16T20:41:07.013Z,63.64
2022-09-16T20:43:34.416Z,62.82
2022-09-16T20:46:10.824Z,59.11
2022-09-16T20:48:38.756Z,60.07
2022-09-16T20:51:16.429Z,61.75
2022-09-16T20:53:56.342Z,63.61
2022-09-16T20:56:23.161Z,61.53
2022-09-16T21:00:57.615Z,62.45
2022-09-16T21:03:34.345Z,62.81
2022-09-16T21:06:14.600Z,59.52
2022-09-16T21:08:55.790Z,61.43
2022-09-16T21:11:23.961Z,62.71
2022-09-16T21:16:00.440Z,62.54
2022-09-16T21:18:37.118Z,63.84
2022-09-16T21:21:12.968Z,62.31
2022-09-16T21:24:13.279Z,59.15
2022-09-16T21:26:41.371Z,61.41
2022-09-16T21:29:25.957Z,62.41
2022-09-16T21:32:03.335Z,62.59
2022-09-16T21:34:40.255Z,61.76
2022-09-16T21:37:08.513Z,63.03
2022-09-16T21:39:45.064Z,63.77
2022-09-16T21:42:12.640Z,61.75
2022-09-16T21:44:40.711Z,60.62
2022-09-16T21:47:11.491Z,61.44
2022-09-16T21:49:39.157Z,63.71
2022-09-16T21:52:07.017Z,64.18
2022-09-16T21:54:34.767Z,63.74
2022-09-16T21:57:02.972Z,61.61
2022-09-16T21:59:30.709Z,60.23
2022-09-16T22:02:02.977Z,62.22
2022-09-16T22:04:31.508Z,63.45
2022-09-16T22:06:59.325Z,61.59
2022-09-16T22:09:27.182Z,62.48
2022-09-16T22:11:56.103Z,61.64
2022-09-16T22:14:23.840Z,62.96
2022-09-16T22:16:51.742Z,63.39
2022-09-16T22:19:19.533Z,63.66
2022-09-16T22:21:49.726Z,62.56
2022-09-16T22:24:21.228Z,62.44
2022-09-16T22:26:51.606Z,62.69
2022-09-16T22:29:20.112Z,62.78
2022-09-16T22:31:48.323Z,63.71
2022-09-16T22:34:16.192Z,62.70
2022-09-16T22:36:43.923Z,63.26
2022-09-16T22:39:14.450Z,63.11
2022-09-16T22:41:42.801Z,61.82
2022-09-16T22:44:12.552Z,61.69
2022-09-16T22:46:43.183Z,62.17
2022-09-16T22:49:11.623Z,62.17
2022-09-16T22:51:39.589Z,62.72
2022-09-16T22:54:08.650Z,61.96
2022-09-16T22:56:36.381Z,62.12
2022-09-16T22:59:06.413Z,61.18
2022-09-16T23:01:37.435Z,61.92
2022-09-16T23:04:07.620Z,61.29
2022-09-16T23:06:36.799Z,62.14
2022-09-16T23:09:06.780Z,61.86
2022-09-16T23:11:36.767Z,61.71
2022-09-16T23:14:06.331Z,63.99
2022-09-16T23:16:35.090Z,62.20
2022-09-16T23:19:05.651Z,63.35
2022-09-16T23:21:33.716Z,63.97
2022-09-16T23:24:03.425Z,61.35
2022-09-16T23:26:33.967Z,61.01
2022-09-16T23:29:06.162Z,61.67
2022-09-16T23:31:35.921Z,60.98
2022-09-16T23:34:07.710Z,61.06
2022-09-16T23:36:37.519Z,62.08
2022-09-16T23:39:06.730Z,62.51
2022-09-16T23:41:35.338Z,61.61
2022-09-16T23:44:03.595Z,63.36
2022-09-16T23:46:31.570Z,61.81
2022-09-16T23:48:59.416Z,62.32
2022-09-16T23:51:28.818Z,63.90
2022-09-16T23:53:57.057Z,63.43
2022-09-16T23:56:25.628Z,61.31
2022-09-16T23:58:57.621Z,63.40
